sensor_id;sensor_type;location;lat;lon;timestamp;P1;durP1;ratioP1;P2;durP2;ratioP2
32198;SDS011;19221;42.656;21.156;2023-05-07T00:00:20;11.48;;;6.97;;
32198;SDS011;19221;42.656;21.156;2023-05-07T00:02:46;9.95;;;6.40;;
32198;SDS011;19221;42.656;21.156;2023-05-07T00:05:12;12.23;;;7.10;;
32198;SDS011;19221;42.656;21.156;2023-05-07T00:07:37;12.70;;;7.80;;
32198;SDS011;19221;42.656;21.156;2023-05-07T00:10:03;11.02;;;6.90;;
32198;SDS011;19221;42.656;21.156;2023-05-07T00:12:29;9.85;;;7.38;;
32198;SDS011;19221;42.656;21.156;2023-05-07T00:14:59;9.90;;;7.25;;
32198;SDS011;19221;42.656;21.156;2023-05-07T00:17:25;11.15;;;7.30;;
32198;SDS011;19221;42.656;21.156;2023-05-07T00:19:50;10.52;;;6.85;;
32198;SDS011;19221;42.656;21.156;2023-05-07T00:22:16;8.75;;;6.20;;
32198;SDS011;19221;42.656;21.156;2023-05-07T00:24:41;10.70;;;6.50;;
32198;SDS011;19221;42.656;21.156;2023-05-07T00:27:07;8.75;;;6.55;;
32198;SDS011;19221;42.656;21.156;2023-05-07T00:29:33;8.32;;;5.88;;
32198;SDS011;19221;42.656;21.156;2023-05-07T00:31:59;10.50;;;6.50;;
32198;SDS011;19221;42.656;21.156;2023-05-07T00:34:24;10.48;;;6.22;;
32198;SDS011;19221;42.656;21.156;2023-05-07T00:36:50;11.07;;;6.53;;
32198;SDS011;19221;42.656;21.156;2023-05-07T00:39:16;10.07;;;6.82;;
32198;SDS011;19221;42.656;21.156;2023-05-07T00:41:41;8.82;;;6.43;;
32198;SDS011;19221;42.656;21.156;2023-05-07T00:44:07;10.30;;;7.00;;
32198;SDS011;19221;42.656;21.156;2023-05-07T00:46:32;11.70;;;8.05;;
32198;SDS011;19221;42.656;21.156;2023-05-07T00:48:59;17.35;;;7.25;;
32198;SDS011;19221;42.656;21.156;2023-05-07T00:51:25;9.23;;;6.50;;
32198;SDS011;19221;42.656;21.156;2023-05-07T00:53:52;11.65;;;6.97;;
32198;SDS011;19221;42.656;21.156;2023-05-07T00:56:20;11.32;;;6.78;;
32198;SDS011;19221;42.656;21.156;2023-05-07T00:58:46;11.15;;;6.90;;
32198;SDS011;19221;42.656;21.156;2023-05-07T01:01:11;9.15;;;6.10;;
32198;SDS011;19221;42.656;21.156;2023-05-07T01:03:37;8.13;;;6.03;;
32198;SDS011;19221;42.656;21.156;2023-05-07T01:06:03;8.82;;;6.45;;
32198;SDS011;19221;42.656;21.156;2023-05-07T01:08:28;11.13;;;6.20;;
32198;SDS011;19221;42.656;21.156;2023-05-07T01:10:55;10.25;;;6.93;;
32198;SDS011;19221;42.656;21.156;2023-05-07T01:13:21;8.90;;;6.28;;
32198;SDS011;19221;42.656;21.156;2023-05-07T01:15:47;8.98;;;6.97;;
32198;SDS011;19221;42.656;21.156;2023-05-07T01:18:12;11.60;;;6.45;;
32198;SDS011;19221;42.656;21.156;2023-05-07T01:20:38;9.85;;;6.00;;
32198;SDS011;19221;42.656;21.156;2023-05-07T01:23:04;9.07;;;6.20;;
32198;SDS011;19221;42.656;21.156;2023-05-07T01:25:30;9.02;;;5.47;;
32198;SDS011;19221;42.656;21.156;2023-05-07T01:27:56;8.65;;;6.28;;
32198;SDS011;19221;42.656;21.156;2023-05-07T01:30:22;8.00;;;6.10;;
32198;SDS011;19221;42.656;21.156;2023-05-07T01:32:52;9.18;;;6.32;;
32198;SDS011;19221;42.656;21.156;2023-05-07T01:35:19;11.30;;;5.82;;
32198;SDS011;19221;42.656;21.156;2023-05-07T01:37:46;8.48;;;6.18;;
32198;SDS011;19221;42.656;21.156;2023-05-07T01:40:12;12.68;;;6.55;;
32198;SDS011;19221;42.656;21.156;2023-05-07T01:42:38;10.27;;;6.35;;
32198;SDS011;19221;42.656;21.156;2023-05-07T01:45:04;9.48;;;6.95;;
32198;SDS011;19221;42.656;21.156;2023-05-07T01:47:30;11.38;;;6.72;;
32198;SDS011;19221;42.656;21.156;2023-05-07T01:49:56;9.82;;;6.70;;
32198;SDS011;19221;42.656;21.156;2023-05-07T01:52:22;9.38;;;6.47;;
32198;SDS011;19221;42.656;21.156;2023-05-07T01:54:48;8.15;;;6.40;;
32198;SDS011;19221;42.656;21.156;2023-05-07T01:57:14;9.77;;;6.20;;
32198;SDS011;19221;42.656;21.156;2023-05-07T01:59:39;9.60;;;6.68;;
32198;SDS011;19221;42.656;21.156;2023-05-07T02:02:05;7.70;;;5.72;;
32198;SDS011;19221;42.656;21.156;2023-05-07T02:04:30;11.15;;;6.90;;
32198;SDS011;19221;42.656;21.156;2023-05-07T02:06:56;9.27;;;6.43;;
32198;SDS011;19221;42.656;21.156;2023-05-07T02:09:22;10.15;;;6.53;;
32198;SDS011;19221;42.656;21.156;2023-05-07T02:11:48;11.60;;;6.78;;
32198;SDS011;19221;42.656;21.156;2023-05-07T02:14:14;10.98;;;6.63;;
32198;SDS011;19221;42.656;21.156;2023-05-07T02:16:41;9.25;;;6.25;;
32198;SDS011;19221;42.656;21.156;2023-05-07T02:19:07;10.55;;;6.57;;
32198;SDS011;19221;42.656;21.156;2023-05-07T02:21:32;9.63;;;6.38;;
32198;SDS011;19221;42.656;21.156;2023-05-07T02:23:58;13.18;;;6.63;;
32198;SDS011;19221;42.656;21.156;2023-05-07T02:26:23;10.30;;;6.20;;
32198;SDS011;19221;42.656;21.156;2023-05-07T02:28:49;11.65;;;6.32;;
32198;SDS011;19221;42.656;21.156;2023-05-07T02:31:15;9.85;;;6.25;;
32198;SDS011;19221;42.656;21.156;2023-05-07T02:33:40;7.78;;;6.13;;
32198;SDS011;19221;42.656;21.156;2023-05-07T02:36:09;8.13;;;5.80;;
32198;SDS011;19221;42.656;21.156;2023-05-07T02:38:35;8.85;;;5.47;;
32198;SDS011;19221;42.656;21.156;2023-05-07T02:41:01;9.50;;;5.53;;
32198;SDS011;19221;42.656;21.156;2023-05-07T02:43:27;15.07;;;9.00;;
32198;SDS011;19221;42.656;21.156;2023-05-07T02:46:06;14.65;;;7.47;;
32198;SDS011;19221;42.656;21.156;2023-05-07T02:48:32;9.05;;;6.45;;
32198;SDS011;19221;42.656;21.156;2023-05-07T02:50:58;9.77;;;5.88;;
32198;SDS011;19221;42.656;21.156;2023-05-07T02:53:23;9.48;;;6.50;;
32198;SDS011;19221;42.656;21.156;2023-05-07T02:55:52;11.15;;;6.68;;
32198;SDS011;19221;42.656;21.156;2023-05-07T02:58:18;8.02;;;6.47;;
32198;SDS011;19221;42.656;21.156;2023-05-07T03:00:43;12.52;;;6.80;;
32198;SDS011;19221;42.656;21.156;2023-05-07T03:03:09;15.25;;;7.40;;
32198;SDS011;19221;42.656;21.156;2023-05-07T03:05:36;8.65;;;7.22;;
32198;SDS011;19221;42.656;21.156;2023-05-07T03:08:01;9.45;;;7.28;;
32198;SDS011;19221;42.656;21.156;2023-05-07T03:10:28;14.07;;;7.13;;
32198;SDS011;19221;42.656;21.156;2023-05-07T03:12:53;10.50;;;7.38;;
32198;SDS011;19221;42.656;21.156;2023-05-07T03:15:19;15.35;;;7.35;;
32198;SDS011;19221;42.656;21.156;2023-05-07T03:17:45;12.23;;;7.30;;
32198;SDS011;19221;42.656;21.156;2023-05-07T03:20:10;11.45;;;7.40;;
32198;SDS011;19221;42.656;21.156;2023-05-07T03:22:36;8.93;;;6.68;;
32198;SDS011;19221;42.656;21.156;2023-05-07T03:25:02;10.95;;;6.20;;
32198;SDS011;19221;42.656;21.156;2023-05-07T03:27:28;10.00;;;6.25;;
32198;SDS011;19221;42.656;21.156;2023-05-07T03:29:53;9.18;;;6.15;;
32198;SDS011;19221;42.656;21.156;2023-05-07T03:32:19;9.05;;;5.57;;
32198;SDS011;19221;42.656;21.156;2023-05-07T03:34:45;10.05;;;6.18;;
32198;SDS011;19221;42.656;21.156;2023-05-07T03:37:10;7.53;;;5.35;;
32198;SDS011;19221;42.656;21.156;2023-05-07T03:39:36;9.57;;;6.88;;
32198;SDS011;19221;42.656;21.156;2023-05-07T03:42:01;10.68;;;6.50;;
32198;SDS011;19221;42.656;21.156;2023-05-07T03:44:28;11.07;;;6.60;;
32198;SDS011;19221;42.656;21.156;2023-05-07T03:46:53;11.40;;;6.40;;
32198;SDS011;19221;42.656;21.156;2023-05-07T03:49:19;9.13;;;6.07;;
32198;SDS011;19221;42.656;21.156;2023-05-07T03:51:44;13.15;;;6.68;;
32198;SDS011;19221;42.656;21.156;2023-05-07T03:54:10;11.05;;;6.70;;
32198;SDS011;19221;42.656;21.156;2023-05-07T03:56:36;12.80;;;6.72;;
32198;SDS011;19221;42.656;21.156;2023-05-07T03:59:01;11.18;;;7.10;;
32198;SDS011;19221;42.656;21.156;2023-05-07T04:01:27;28.45;;;12.75;;
32198;SDS011;19221;42.656;21.156;2023-05-07T04:03:53;33.40;;;14.90;;
32198;SDS011;19221;42.656;21.156;2023-05-07T04:06:18;46.00;;;19.48;;
32198;SDS011;19221;42.656;21.156;2023-05-07T04:08:44;36.78;;;17.98;;
32198;SDS011;19221;42.656;21.156;2023-05-07T04:11:09;24.75;;;12.80;;
32198;SDS011;19221;42.656;21.156;2023-05-07T04:13:35;16.58;;;10.63;;
32198;SDS011;19221;42.656;21.156;2023-05-07T04:16:01;13.90;;;8.05;;
32198;SDS011;19221;42.656;21.156;2023-05-07T04:18:27;10.80;;;7.18;;
32198;SDS011;19221;42.656;21.156;2023-05-07T04:20:53;12.98;;;7.85;;
32198;SDS011;19221;42.656;21.156;2023-05-07T04:23:19;11.07;;;7.25;;
32198;SDS011;19221;42.656;21.156;2023-05-07T04:25:45;16.08;;;7.85;;
32198;SDS011;19221;42.656;21.156;2023-05-07T04:28:11;13.38;;;6.60;;
32198;SDS011;19221;42.656;21.156;2023-05-07T04:30:37;13.68;;;7.13;;
32198;SDS011;19221;42.656;21.156;2023-05-07T04:33:02;13.30;;;6.90;;
32198;SDS011;19221;42.656;21.156;2023-05-07T04:35:28;12.13;;;7.32;;
32198;SDS011;19221;42.656;21.156;2023-05-07T04:37:53;16.05;;;8.32;;
32198;SDS011;19221;42.656;21.156;2023-05-07T04:40:19;12.00;;;8.55;;
32198;SDS011;19221;42.656;21.156;2023-05-07T04:42:45;10.73;;;6.93;;
32198;SDS011;19221;42.656;21.156;2023-05-07T04:45:11;9.63;;;6.78;;
32198;SDS011;19221;42.656;21.156;2023-05-07T04:47:39;9.50;;;6.40;;
32198;SDS011;19221;42.656;21.156;2023-05-07T04:50:05;13.13;;;7.00;;
32198;SDS011;19221;42.656;21.156;2023-05-07T04:52:31;11.93;;;6.32;;
32198;SDS011;19221;42.656;21.156;2023-05-07T04:54:58;10.73;;;6.43;;
32198;SDS011;19221;42.656;21.156;2023-05-07T04:57:24;11.98;;;6.18;;
32198;SDS011;19221;42.656;21.156;2023-05-07T04:59:51;8.40;;;6.22;;
32198;SDS011;19221;42.656;21.156;2023-05-07T05:02:18;12.30;;;5.97;;
32198;SDS011;19221;42.656;21.156;2023-05-07T05:04:44;10.75;;;6.70;;
32198;SDS011;19221;42.656;21.156;2023-05-07T05:07:09;10.18;;;6.63;;
32198;SDS011;19221;42.656;21.156;2023-05-07T05:09:35;13.82;;;7.65;;
32198;SDS011;19221;42.656;21.156;2023-05-07T05:12:01;13.38;;;7.93;;
32198;SDS011;19221;42.656;21.156;2023-05-07T05:14:26;12.88;;;8.25;;
32198;SDS011;19221;42.656;21.156;2023-05-07T05:16:52;13.05;;;8.32;;
32198;SDS011;19221;42.656;21.156;2023-05-07T05:19:18;16.85;;;9.13;;
32198;SDS011;19221;42.656;21.156;2023-05-07T05:21:43;14.23;;;9.30;;
32198;SDS011;19221;42.656;21.156;2023-05-07T05:24:09;14.68;;;9.27;;
32198;SDS011;19221;42.656;21.156;2023-05-07T05:26:35;22.45;;;11.93;;
32198;SDS011;19221;42.656;21.156;2023-05-07T05:29:00;19.50;;;10.63;;
32198;SDS011;19221;42.656;21.156;2023-05-07T05:31:26;30.27;;;12.23;;
32198;SDS011;19221;42.656;21.156;2023-05-07T05:33:52;18.90;;;11.50;;
32198;SDS011;19221;42.656;21.156;2023-05-07T05:36:17;19.40;;;11.60;;
32198;SDS011;19221;42.656;21.156;2023-05-07T05:38:43;20.50;;;12.35;;
32198;SDS011;19221;42.656;21.156;2023-05-07T05:41:09;22.77;;;11.13;;
32198;SDS011;19221;42.656;21.156;2023-05-07T05:43:35;18.67;;;11.52;;
32198;SDS011;19221;42.656;21.156;2023-05-07T05:46:01;19.55;;;10.93;;
32198;SDS011;19221;42.656;21.156;2023-05-07T05:48:28;16.55;;;10.57;;
32198;SDS011;19221;42.656;21.156;2023-05-07T05:50:54;18.55;;;10.00;;
32198;SDS011;19221;42.656;21.156;2023-05-07T05:53:19;15.48;;;9.90;;
32198;SDS011;19221;42.656;21.156;2023-05-07T05:55:45;17.38;;;10.07;;
32198;SDS011;19221;42.656;21.156;2023-05-07T05:58:11;14.35;;;9.98;;
32198;SDS011;19221;42.656;21.156;2023-05-07T06:00:37;15.23;;;9.40;;
32198;SDS011;19221;42.656;21.156;2023-05-07T06:03:03;16.80;;;9.48;;
32198;SDS011;19221;42.656;21.156;2023-05-07T06:05:28;15.00;;;9.32;;
32198;SDS011;19221;42.656;21.156;2023-05-07T06:07:54;15.43;;;8.63;;
32198;SDS011;19221;42.656;21.156;2023-05-07T06:10:20;19.60;;;9.43;;
32198;SDS011;19221;42.656;21.156;2023-05-07T06:12:45;15.38;;;8.82;;
32198;SDS011;19221;42.656;21.156;2023-05-07T06:15:11;15.73;;;8.65;;
32198;SDS011;19221;42.656;21.156;2023-05-07T06:17:37;18.08;;;8.70;;
32198;SDS011;19221;42.656;21.156;2023-05-07T06:20:02;12.80;;;8.30;;
32198;SDS011;19221;42.656;21.156;2023-05-07T06:22:28;13.68;;;9.23;;
32198;SDS011;19221;42.656;21.156;2023-05-07T06:24:54;17.70;;;9.18;;
32198;SDS011;19221;42.656;21.156;2023-05-07T06:27:19;15.20;;;8.65;;
32198;SDS011;19221;42.656;21.156;2023-05-07T06:29:45;12.15;;;9.07;;
32198;SDS011;19221;42.656;21.156;2023-05-07T06:32:11;13.93;;;8.40;;
32198;SDS011;19221;42.656;21.156;2023-05-07T06:34:38;12.63;;;8.88;;
32198;SDS011;19221;42.656;21.156;2023-05-07T06:37:04;17.88;;;9.07;;
32198;SDS011;19221;42.656;21.156;2023-05-07T06:39:30;14.23;;;8.65;;
32198;SDS011;19221;42.656;21.156;2023-05-07T06:41:56;16.48;;;9.05;;
32198;SDS011;19221;42.656;21.156;2023-05-07T06:44:22;13.43;;;9.65;;
32198;SDS011;19221;42.656;21.156;2023-05-07T06:46:47;14.13;;;8.90;;
32198;SDS011;19221;42.656;21.156;2023-05-07T06:49:13;14.45;;;8.30;;
32198;SDS011;19221;42.656;21.156;2023-05-07T06:51:39;13.73;;;9.25;;
32198;SDS011;19221;42.656;21.156;2023-05-07T06:54:04;13.95;;;8.38;;
32198;SDS011;19221;42.656;21.156;2023-05-07T06:56:30;12.18;;;7.90;;
32198;SDS011;19221;42.656;21.156;2023-05-07T06:58:56;12.77;;;8.68;;
32198;SDS011;19221;42.656;21.156;2023-05-07T07:01:22;13.05;;;8.93;;
32198;SDS011;19221;42.656;21.156;2023-05-07T07:03:47;10.10;;;7.72;;
32198;SDS011;19221;42.656;21.156;2023-05-07T07:06:13;14.60;;;8.43;;
32198;SDS011;19221;42.656;21.156;2023-05-07T07:08:39;16.83;;;8.45;;
32198;SDS011;19221;42.656;21.156;2023-05-07T07:11:05;12.73;;;8.73;;
32198;SDS011;19221;42.656;21.156;2023-05-07T07:13:30;12.63;;;8.82;;
32198;SDS011;19221;42.656;21.156;2023-05-07T07:15:56;11.90;;;8.57;;
32198;SDS011;19221;42.656;21.156;2023-05-07T07:18:22;10.60;;;7.65;;
32198;SDS011;19221;42.656;21.156;2023-05-07T07:20:47;10.55;;;8.23;;
32198;SDS011;19221;42.656;21.156;2023-05-07T07:23:13;12.32;;;8.25;;
32198;SDS011;19221;42.656;21.156;2023-05-07T07:25:39;12.65;;;8.65;;
32198;SDS011;19221;42.656;21.156;2023-05-07T07:28:05;18.02;;;8.98;;
32198;SDS011;19221;42.656;21.156;2023-05-07T07:30:30;14.73;;;8.38;;
32198;SDS011;19221;42.656;21.156;2023-05-07T07:32:56;11.32;;;7.97;;
32198;SDS011;19221;42.656;21.156;2023-05-07T07:35:28;12.63;;;8.73;;
32198;SDS011;19221;42.656;21.156;2023-05-07T07:37:53;17.48;;;9.00;;
32198;SDS011;19221;42.656;21.156;2023-05-07T07:40:19;14.05;;;9.05;;
32198;SDS011;19221;42.656;21.156;2023-05-07T07:42:45;13.45;;;8.52;;
32198;SDS011;19221;42.656;21.156;2023-05-07T07:45:11;14.00;;;9.18;;
32198;SDS011;19221;42.656;21.156;2023-05-07T07:47:37;16.00;;;9.05;;
32198;SDS011;19221;42.656;21.156;2023-05-07T07:50:02;16.80;;;8.25;;
32198;SDS011;19221;42.656;21.156;2023-05-07T07:52:28;14.10;;;8.15;;
32198;SDS011;19221;42.656;21.156;2023-05-07T07:54:54;11.77;;;7.97;;
32198;SDS011;19221;42.656;21.156;2023-05-07T07:57:19;12.98;;;7.65;;
32198;SDS011;19221;42.656;21.156;2023-05-07T07:59:45;10.93;;;7.05;;
32198;SDS011;19221;42.656;21.156;2023-05-07T08:02:10;9.57;;;6.20;;
32198;SDS011;19221;42.656;21.156;2023-05-07T08:04:36;11.50;;;6.13;;
32198;SDS011;19221;42.656;21.156;2023-05-07T08:07:02;10.48;;;5.45;;
32198;SDS011;19221;42.656;21.156;2023-05-07T08:09:28;8.70;;;5.30;;
32198;SDS011;19221;42.656;21.156;2023-05-07T08:11:54;9.25;;;5.72;;
32198;SDS011;19221;42.656;21.156;2023-05-07T08:14:19;8.48;;;5.35;;
32198;SDS011;19221;42.656;21.156;2023-05-07T08:16:45;12.77;;;5.55;;
32198;SDS011;19221;42.656;21.156;2023-05-07T08:19:11;8.57;;;5.10;;
32198;SDS011;19221;42.656;21.156;2023-05-07T08:21:40;8.02;;;4.63;;
32198;SDS011;19221;42.656;21.156;2023-05-07T08:24:06;11.82;;;6.07;;
32198;SDS011;19221;42.656;21.156;2023-05-07T08:26:31;11.00;;;5.65;;
32198;SDS011;19221;42.656;21.156;2023-05-07T08:28:57;8.80;;;5.50;;
32198;SDS011;19221;42.656;21.156;2023-05-07T08:31:22;9.98;;;5.72;;
32198;SDS011;19221;42.656;21.156;2023-05-07T08:33:48;9.25;;;6.03;;
32198;SDS011;19221;42.656;21.156;2023-05-07T08:36:14;8.93;;;6.22;;
32198;SDS011;19221;42.656;21.156;2023-05-07T08:38:39;10.90;;;6.53;;
32198;SDS011;19221;42.656;21.156;2023-05-07T08:41:09;9.43;;;5.97;;
32198;SDS011;19221;42.656;21.156;2023-05-07T08:43:35;11.90;;;6.40;;
32198;SDS011;19221;42.656;21.156;2023-05-07T08:46:01;10.85;;;7.03;;
32198;SDS011;19221;42.656;21.156;2023-05-07T08:48:27;11.75;;;6.35;;
32198;SDS011;19221;42.656;21.156;2023-05-07T08:50:55;8.23;;;5.57;;
32198;SDS011;19221;42.656;21.156;2023-05-07T08:53:20;10.30;;;5.32;;
32198;SDS011;19221;42.656;21.156;2023-05-07T08:55:46;7.85;;;5.40;;
32198;SDS011;19221;42.656;21.156;2023-05-07T08:58:12;10.02;;;5.97;;
32198;SDS011;19221;42.656;21.156;2023-05-07T09:00:38;10.77;;;6.45;;
32198;SDS011;19221;42.656;21.156;2023-05-07T09:03:05;9.45;;;5.72;;
32198;SDS011;19221;42.656;21.156;2023-05-07T09:05:31;9.95;;;6.03;;
32198;SDS011;19221;42.656;21.156;2023-05-07T09:07:59;10.00;;;6.47;;
32198;SDS011;19221;42.656;21.156;2023-05-07T09:10:25;8.10;;;6.35;;
32198;SDS011;19221;42.656;21.156;2023-05-07T09:12:51;9.05;;;5.60;;
32198;SDS011;19221;42.656;21.156;2023-05-07T09:15:17;6.90;;;4.75;;
32198;SDS011;19221;42.656;21.156;2023-05-07T09:17:43;6.60;;;4.55;;
32198;SDS011;19221;42.656;21.156;2023-05-07T09:20:09;11.32;;;6.50;;
32198;SDS011;19221;42.656;21.156;2023-05-07T09:22:38;7.65;;;5.70;;
32198;SDS011;19221;42.656;21.156;2023-05-07T09:25:04;9.05;;;4.95;;
32198;SDS011;19221;42.656;21.156;2023-05-07T09:27:30;8.50;;;5.47;;
32198;SDS011;19221;42.656;21.156;2023-05-07T09:29:55;8.90;;;5.05;;
32198;SDS011;19221;42.656;21.156;2023-05-07T09:32:21;6.22;;;4.65;;
32198;SDS011;19221;42.656;21.156;2023-05-07T09:34:47;9.73;;;5.18;;
32198;SDS011;19221;42.656;21.156;2023-05-07T09:37:12;9.05;;;5.32;;
32198;SDS011;19221;42.656;21.156;2023-05-07T09:39:42;8.45;;;5.30;;
32198;SDS011;19221;42.656;21.156;2023-05-07T09:42:08;13.15;;;5.75;;
32198;SDS011;19221;42.656;21.156;2023-05-07T09:44:34;8.02;;;5.60;;
32198;SDS011;19221;42.656;21.156;2023-05-07T09:47:00;10.50;;;5.10;;
32198;SDS011;19221;42.656;21.156;2023-05-07T09:49:27;9.05;;;5.32;;
32198;SDS011;19221;42.656;21.156;2023-05-07T09:51:55;8.07;;;5.63;;
32198;SDS011;19221;42.656;21.156;2023-05-07T09:54:21;11.63;;;5.43;;
32198;SDS011;19221;42.656;21.156;2023-05-07T09:56:48;8.25;;;5.18;;
32198;SDS011;19221;42.656;21.156;2023-05-07T09:59:14;8.45;;;5.72;;
32198;SDS011;19221;42.656;21.156;2023-05-07T10:01:41;18.38;;;6.35;;
32198;SDS011;19221;42.656;21.156;2023-05-07T10:04:07;10.48;;;5.60;;
32198;SDS011;19221;42.656;21.156;2023-05-07T10:06:36;11.40;;;5.38;;
32198;SDS011;19221;42.656;21.156;2023-05-07T10:09:03;9.50;;;5.35;;
32198;SDS011;19221;42.656;21.156;2023-05-07T10:11:31;8.50;;;5.88;;
32198;SDS011;19221;42.656;21.156;2023-05-07T10:13:57;8.55;;;6.07;;
32198;SDS011;19221;42.656;21.156;2023-05-07T10:16:23;10.27;;;5.68;;
32198;SDS011;19221;42.656;21.156;2023-05-07T10:18:50;18.27;;;7.50;;
32198;SDS011;19221;42.656;21.156;2023-05-07T10:21:17;17.63;;;8.48;;
32198;SDS011;19221;42.656;21.156;2023-05-07T10:26:31;12.73;;;5.78;;
32198;SDS011;19221;42.656;21.156;2023-05-07T10:29:21;8.98;;;5.82;;
32198;SDS011;19221;42.656;21.156;2023-05-07T10:34:23;11.65;;;6.40;;
32198;SDS011;19221;42.656;21.156;2023-05-07T10:36:49;12.75;;;5.97;;
32198;SDS011;19221;42.656;21.156;2023-05-07T10:39:17;15.05;;;7.65;;
32198;SDS011;19221;42.656;21.156;2023-05-07T10:41:43;8.30;;;5.97;;
32198;SDS011;19221;42.656;21.156;2023-05-07T10:44:08;13.65;;;6.88;;
32198;SDS011;19221;42.656;21.156;2023-05-07T10:46:34;8.48;;;6.10;;
32198;SDS011;19221;42.656;21.156;2023-05-07T10:51:26;9.40;;;5.57;;
32198;SDS011;19221;42.656;21.156;2023-05-07T10:56:36;7.65;;;4.75;;
32198;SDS011;19221;42.656;21.156;2023-05-07T11:01:52;12.40;;;7.70;;
32198;SDS011;19221;42.656;21.156;2023-05-07T11:04:19;6.53;;;4.93;;
32198;SDS011;19221;42.656;21.156;2023-05-07T11:15:12;7.25;;;5.20;;
32198;SDS011;19221;42.656;21.156;2023-05-07T11:17:57;11.20;;;5.90;;
32198;SDS011;19221;42.656;21.156;2023-05-07T11:23:17;10.18;;;6.00;;
32198;SDS011;19221;42.656;21.156;2023-05-07T11:26:04;8.13;;;5.13;;
32198;SDS011;19221;42.656;21.156;2023-05-07T11:28:30;11.65;;;7.32;;
32198;SDS011;19221;42.656;21.156;2023-05-07T11:30:56;10.65;;;6.25;;
32198;SDS011;19221;42.656;21.156;2023-05-07T11:33:22;12.60;;;6.97;;
32198;SDS011;19221;42.656;21.156;2023-05-07T11:35:50;9.85;;;6.15;;
32198;SDS011;19221;42.656;21.156;2023-05-07T11:38:17;9.75;;;5.80;;
32198;SDS011;19221;42.656;21.156;2023-05-07T11:40:50;9.30;;;5.97;;
32198;SDS011;19221;42.656;21.156;2023-05-07T11:43:16;12.13;;;6.35;;
32198;SDS011;19221;42.656;21.156;2023-05-07T11:45:42;13.02;;;6.28;;
32198;SDS011;19221;42.656;21.156;2023-05-07T11:48:07;17.63;;;6.95;;
32198;SDS011;19221;42.656;21.156;2023-05-07T11:50:33;12.65;;;6.47;;
32198;SDS011;19221;42.656;21.156;2023-05-07T11:52:59;16.55;;;6.38;;
32198;SDS011;19221;42.656;21.156;2023-05-07T11:55:24;17.98;;;7.22;;
32198;SDS011;19221;42.656;21.156;2023-05-07T11:57:51;12.55;;;6.30;;
32198;SDS011;19221;42.656;21.156;2023-05-07T12:00:17;12.10;;;6.43;;
32198;SDS011;19221;42.656;21.156;2023-05-07T12:02:43;14.75;;;7.22;;
32198;SDS011;19221;42.656;21.156;2023-05-07T12:05:10;16.38;;;7.47;;
32198;SDS011;19221;42.656;21.156;2023-05-07T12:07:35;12.32;;;6.10;;
32198;SDS011;19221;42.656;21.156;2023-05-07T12:10:05;14.13;;;6.72;;
32198;SDS011;19221;42.656;21.156;2023-05-07T12:12:31;17.95;;;6.68;;
32198;SDS011;19221;42.656;21.156;2023-05-07T12:14:56;11.88;;;6.03;;
32198;SDS011;19221;42.656;21.156;2023-05-07T12:17:22;14.35;;;6.10;;
32198;SDS011;19221;42.656;21.156;2023-05-07T12:19:48;9.98;;;5.95;;
32198;SDS011;19221;42.656;21.156;2023-05-07T12:22:14;15.02;;;6.10;;
32198;SDS011;19221;42.656;21.156;2023-05-07T12:24:43;11.15;;;6.72;;
32198;SDS011;19221;42.656;21.156;2023-05-07T12:27:09;16.77;;;9.02;;
32198;SDS011;19221;42.656;21.156;2023-05-07T12:29:34;11.85;;;6.97;;
32198;SDS011;19221;42.656;21.156;2023-05-07T12:32:00;8.57;;;5.95;;
32198;SDS011;19221;42.656;21.156;2023-05-07T12:34:26;8.70;;;5.28;;
32198;SDS011;19221;42.656;21.156;2023-05-07T12:36:51;10.20;;;5.47;;
32198;SDS011;19221;42.656;21.156;2023-05-07T12:39:18;8.13;;;5.53;;
32198;SDS011;19221;42.656;21.156;2023-05-07T12:41:54;7.25;;;5.35;;
32198;SDS011;19221;42.656;21.156;2023-05-07T12:44:23;11.68;;;5.75;;
32198;SDS011;19221;42.656;21.156;2023-05-07T12:46:49;11.95;;;5.75;;
32198;SDS011;19221;42.656;21.156;2023-05-07T12:49:15;8.48;;;5.50;;
32198;SDS011;19221;42.656;21.156;2023-05-07T12:51:41;12.85;;;6.65;;
32198;SDS011;19221;42.656;21.156;2023-05-07T12:54:07;24.23;;;7.28;;
32198;SDS011;19221;42.656;21.156;2023-05-07T12:56:35;25.45;;;8.10;;
32198;SDS011;19221;42.656;21.156;2023-05-07T12:59:01;23.55;;;7.70;;
32198;SDS011;19221;42.656;21.156;2023-05-07T13:01:29;32.08;;;9.23;;
32198;SDS011;19221;42.656;21.156;2023-05-07T13:06:23;22.33;;;7.70;;
32198;SDS011;19221;42.656;21.156;2023-05-07T13:08:49;12.30;;;5.93;;
32198;SDS011;19221;42.656;21.156;2023-05-07T13:11:14;8.50;;;5.35;;
32198;SDS011;19221;42.656;21.156;2023-05-07T13:13:40;11.57;;;5.90;;
32198;SDS011;19221;42.656;21.156;2023-05-07T13:16:07;12.52;;;6.03;;
32198;SDS011;19221;42.656;21.156;2023-05-07T13:18:33;19.70;;;7.78;;
32198;SDS011;19221;42.656;21.156;2023-05-07T13:20:59;25.70;;;8.60;;
32198;SDS011;19221;42.656;21.156;2023-05-07T13:23:25;21.13;;;8.13;;
32198;SDS011;19221;42.656;21.156;2023-05-07T13:25:51;12.15;;;5.93;;
32198;SDS011;19221;42.656;21.156;2023-05-07T13:28:21;11.55;;;5.97;;
32198;SDS011;19221;42.656;21.156;2023-05-07T13:30:47;8.98;;;5.85;;
32198;SDS011;19221;42.656;21.156;2023-05-07T13:33:12;9.32;;;6.57;;
32198;SDS011;19221;42.656;21.156;2023-05-07T13:35:38;10.30;;;7.00;;
32198;SDS011;19221;42.656;21.156;2023-05-07T13:38:04;8.98;;;5.80;;
32198;SDS011;19221;42.656;21.156;2023-05-07T13:40:30;9.75;;;6.10;;
32198;SDS011;19221;42.656;21.156;2023-05-07T13:42:58;13.63;;;6.53;;
32198;SDS011;19221;42.656;21.156;2023-05-07T13:45:26;33.50;;;8.32;;
32198;SDS011;19221;42.656;21.156;2023-05-07T13:47:52;28.40;;;8.23;;
32198;SDS011;19221;42.656;21.156;2023-05-07T13:50:17;16.13;;;7.07;;
32198;SDS011;19221;42.656;21.156;2023-05-07T13:52:44;12.63;;;7.18;;
32198;SDS011;19221;42.656;21.156;2023-05-07T13:55:19;19.65;;;6.75;;
32198;SDS011;19221;42.656;21.156;2023-05-07T13:57:45;16.98;;;6.57;;
32198;SDS011;19221;42.656;21.156;2023-05-07T14:00:11;21.35;;;9.00;;
32198;SDS011;19221;42.656;21.156;2023-05-07T14:02:37;19.23;;;7.68;;
32198;SDS011;19221;42.656;21.156;2023-05-07T14:05:02;23.75;;;7.57;;
32198;SDS011;19221;42.656;21.156;2023-05-07T14:07:28;20.80;;;7.60;;
32198;SDS011;19221;42.656;21.156;2023-05-07T14:09:54;18.00;;;7.75;;
32198;SDS011;19221;42.656;21.156;2023-05-07T14:12:20;23.85;;;7.72;;
32198;SDS011;19221;42.656;21.156;2023-05-07T14:14:46;19.88;;;6.93;;
32198;SDS011;19221;42.656;21.156;2023-05-07T14:17:12;28.60;;;8.18;;
32198;SDS011;19221;42.656;21.156;2023-05-07T14:19:38;23.90;;;7.28;;
32198;SDS011;19221;42.656;21.156;2023-05-07T14:22:03;20.52;;;7.57;;
32198;SDS011;19221;42.656;21.156;2023-05-07T14:24:29;22.52;;;7.15;;
32198;SDS011;19221;42.656;21.156;2023-05-07T14:26:54;14.55;;;8.00;;
32198;SDS011;19221;42.656;21.156;2023-05-07T14:29:20;11.98;;;7.43;;
32198;SDS011;19221;42.656;21.156;2023-05-07T14:31:46;14.50;;;7.10;;
32198;SDS011;19221;42.656;21.156;2023-05-07T14:34:11;17.77;;;8.15;;
32198;SDS011;19221;42.656;21.156;2023-05-07T14:36:37;13.13;;;6.93;;
32198;SDS011;19221;42.656;21.156;2023-05-07T14:39:03;12.90;;;6.82;;
32198;SDS011;19221;42.656;21.156;2023-05-07T14:41:29;13.70;;;6.80;;
32198;SDS011;19221;42.656;21.156;2023-05-07T14:43:55;11.50;;;6.22;;
32198;SDS011;19221;42.656;21.156;2023-05-07T14:46:21;8.13;;;6.22;;